createdAt,value
2024-05-09T00:00:58.103Z,10.50
2024-05-09T00:03:00.863Z,10.50
2024-05-09T00:05:03.125Z,10.40
2024-05-09T00:07:05.073Z,10.50
2024-05-09T00:09:06.839Z,10.50
2024-05-09T00:11:08.728Z,10.50
2024-05-09T00:13:11.135Z,10.50
2024-05-09T00:15:13.351Z,10.50
2024-05-09T00:17:15.248Z,10.50
2024-05-09T00:19:17.219Z,10.50
2024-05-09T00:21:22.141Z,10.50
2024-05-09T00:23:23.937Z,10.50
2024-05-09T00:25:25.797Z,10.60
2024-05-09T00:27:27.552Z,10.60
2024-05-09T00:29:29.387Z,10.60
2024-05-09T00:31:31.162Z,10.50
2024-05-09T00:33:33.023Z,10.50
2024-05-09T00:35:35.229Z,10.50
2024-05-09T00:37:37.128Z,10.50
2024-05-09T00:39:38.896Z,10.60
2024-05-09T00:41:40.824Z,10.60
2024-05-09T00:43:42.726Z,10.60
2024-05-09T00:45:44.658Z,10.60
2024-05-09T00:47:47.026Z,10.60
2024-05-09T00:49:49.211Z,10.60
2024-05-09T00:51:51.419Z,10.60
2024-05-09T00:53:53.242Z,10.60
2024-05-09T00:55:56.226Z,10.60
2024-05-09T00:57:58.012Z,10.60
2024-05-09T01:00:00.118Z,10.60
2024-05-09T01:02:01.944Z,10.60
2024-05-09T01:04:04.084Z,10.60
2024-05-09T01:06:05.993Z,10.60
2024-05-09T01:08:08.042Z,10.60
2024-05-09T01:10:14.318Z,10.60
2024-05-09T01:12:24.743Z,10.60
2024-05-09T01:14:26.684Z,10.60
2024-05-09T01:16:28.590Z,10.50
2024-05-09T01:18:30.508Z,10.50
2024-05-09T01:20:40.846Z,10.60
2024-05-09T01:22:45.475Z,10.60
2024-05-09T01:24:47.282Z,10.60
2024-05-09T01:26:49.353Z,10.60
2024-05-09T01:28:51.191Z,10.60
2024-05-09T01:30:53.008Z,10.60
2024-05-09T01:32:55.019Z,10.60
2024-05-09T01:34:57.043Z,10.60
2024-05-09T01:36:58.896Z,10.60
2024-05-09T01:39:00.678Z,10.60
2024-05-09T01:41:02.676Z,10.60
2024-05-09T01:43:04.771Z,10.60
2024-05-09T01:45:07.625Z,10.60
2024-05-09T01:47:09.635Z,10.60
2024-05-09T01:49:11.537Z,10.60
2024-05-09T01:51:13.392Z,10.60
2024-05-09T01:53:15.482Z,10.60
2024-05-09T01:55:17.462Z,10.60
2024-05-09T01:57:19.218Z,10.60
2024-05-09T01:59:21.123Z,10.60
2024-05-09T02:01:22.985Z,10.60
2024-05-09T02:03:24.925Z,10.60
2024-05-09T02:05:26.905Z,10.60
2024-05-09T02:07:28.777Z,10.60
2024-05-09T02:09:30.563Z,10.60
2024-05-09T02:11:32.514Z,10.60
2024-05-09T02:13:34.362Z,10.60
2024-05-09T02:15:36.194Z,10.60
2024-05-09T02:17:38.119Z,10.60
2024-05-09T02:19:40.038Z,10.60
2024-05-09T02:21:41.887Z,10.60
2024-05-09T02:23:43.663Z,10.60
2024-05-09T02:25:46.725Z,10.60
2024-05-09T02:27:48.560Z,10.60
2024-05-09T02:29:50.318Z,10.60
2024-05-09T02:31:52.144Z,10.60
2024-05-09T02:33:54.299Z,10.60
2024-05-09T02:35:56.238Z,10.60
2024-05-09T02:37:58.000Z,10.60
2024-05-09T02:39:59.790Z,10.60
2024-05-09T02:42:01.580Z,10.60
2024-05-09T02:44:03.388Z,10.60
2024-05-09T02:46:06.540Z,10.60
2024-05-09T02:48:12.510Z,10.60
2024-05-09T02:50:19.438Z,10.60
2024-05-09T02:52:27.867Z,10.60
2024-05-09T02:54:29.655Z,10.60
2024-05-09T02:56:31.493Z,10.60
2024-05-09T02:58:33.278Z,10.60
2024-05-09T03:00:39.676Z,10.60
2024-05-09T03:02:44.592Z,10.60
2024-05-09T03:04:46.654Z,10.60
2024-05-09T03:06:48.519Z,10.60
2024-05-09T03:08:50.271Z,10.60
2024-05-09T03:10:52.164Z,10.50
2024-05-09T03:12:53.976Z,10.50
2024-05-09T03:14:55.795Z,10.60
2024-05-09T03:16:57.606Z,10.60
2024-05-09T03:18:59.434Z,10.50
2024-05-09T03:21:01.278Z,10.50
2024-05-09T03:23:03.855Z,10.60
2024-05-09T03:25:06.153Z,10.50
2024-05-09T03:27:07.985Z,10.60
2024-05-09T03:29:10.018Z,10.50
2024-05-09T03:31:12.187Z,10.50
2024-05-09T03:33:19.158Z,10.50
2024-05-09T03:35:22.231Z,10.50
2024-05-09T03:37:24.202Z,10.60
2024-05-09T03:39:26.045Z,10.60
2024-05-09T03:41:27.844Z,10.60
2024-05-09T03:43:29.626Z,10.60
2024-05-09T03:45:31.403Z,10.60
2024-05-09T03:47:35.558Z,10.60
2024-05-09T03:49:37.536Z,10.60
2024-05-09T03:51:39.393Z,10.60
2024-05-09T03:53:41.265Z,10.60
2024-05-09T03:55:43.075Z,10.60
2024-05-09T03:57:44.851Z,10.60
2024-05-09T03:59:46.596Z,10.50
2024-05-09T04:01:49.180Z,10.50
2024-05-09T04:03:51.350Z,10.50
2024-05-09T04:05:53.255Z,10.50
2024-05-09T04:07:55.104Z,10.50
2024-05-09T04:09:56.878Z,10.50
2024-05-09T04:11:58.821Z,10.50
2024-05-09T04:14:00.788Z,10.50
2024-05-09T04:16:02.586Z,10.50
2024-05-09T04:18:04.611Z,10.50
2024-05-09T04:20:08.550Z,10.50
2024-05-09T04:22:12.423Z,10.50
2024-05-09T04:24:14.287Z,10.50
2024-05-09T04:26:16.099Z,10.50
2024-05-09T04:28:18.617Z,10.50
2024-05-09T04:30:26.493Z,10.50
2024-05-09T04:32:36.764Z,10.50
2024-05-09T04:34:38.604Z,10.50
2024-05-09T04:36:43.124Z,10.40
2024-05-09T04:38:46.041Z,10.40
2024-05-09T04:40:47.928Z,10.40
2024-05-09T04:42:49.757Z,10.40
2024-05-09T04:44:53.544Z,10.40
2024-05-09T04:46:56.598Z,10.40
2024-05-09T04:48:58.457Z,10.40
2024-05-09T04:51:01.784Z,10.50
2024-05-09T04:53:03.791Z,10.50
2024-05-09T04:55:05.898Z,10.50
2024-05-09T04:57:07.646Z,10.50
2024-05-09T04:59:09.444Z,10.50
2024-05-09T05:01:11.348Z,10.50
2024-05-09T05:03:15.504Z,10.50
2024-05-09T05:05:18.384Z,10.50
2024-05-09T05:07:20.262Z,10.50
2024-05-09T05:09:22.095Z,10.50
2024-05-09T05:11:24.030Z,10.50
2024-05-09T05:13:30.521Z,10.60
2024-05-09T05:15:32.289Z,10.50
2024-05-09T05:17:37.280Z,10.50
2024-05-09T05:19:39.257Z,10.60
2024-05-09T05:21:41.108Z,10.60
2024-05-09T05:23:42.930Z,10.60
2024-05-09T05:25:45.178Z,10.70
2024-05-09T05:27:46.986Z,10.70
2024-05-09T05:29:48.792Z,10.70
2024-05-09T05:31:50.695Z,10.70
2024-05-09T05:33:52.586Z,10.70
2024-05-09T05:35:54.516Z,10.80
2024-05-09T05:37:56.289Z,10.80
2024-05-09T05:39:58.306Z,10.80
2024-05-09T05:42:00.102Z,10.80
2024-05-09T05:44:01.936Z,10.90
2024-05-09T05:46:03.801Z,10.90
2024-05-09T05:48:06.714Z,10.90
2024-05-09T05:50:20.489Z,11.00
2024-05-09T05:52:28.728Z,11.00
2024-05-09T05:54:30.497Z,11.00
2024-05-09T05:56:32.510Z,11.00
2024-05-09T05:58:34.385Z,11.10
2024-05-09T06:00:39.136Z,11.10
2024-05-09T06:02:42.457Z,11.10
2024-05-09T06:04:44.360Z,11.10
2024-05-09T06:06:46.394Z,11.10
2024-05-09T06:08:48.303Z,11.20
2024-05-09T06:10:50.335Z,11.30
2024-05-09T06:12:52.261Z,11.30
2024-05-09T06:14:54.086Z,11.40
2024-05-09T06:16:58.096Z,11.40
2024-05-09T06:19:00.104Z,11.40
2024-05-09T06:21:02.022Z,11.40
2024-05-09T06:23:04.141Z,11.50
2024-05-09T06:25:06.394Z,11.50
2024-05-09T06:27:08.628Z,11.50
2024-05-09T06:29:10.566Z,11.50
2024-05-09T06:31:12.546Z,11.50
2024-05-09T06:33:16.046Z,11.60
2024-05-09T06:35:18.724Z,11.70
2024-05-09T06:37:23.464Z,11.70
2024-05-09T06:39:25.233Z,11.70
2024-05-09T06:41:27.141Z,11.90
2024-05-09T06:43:29.308Z,11.90
2024-05-09T06:45:31.136Z,11.90
2024-05-09T06:47:33.136Z,12.00
2024-05-09T06:49:35.169Z,12.00
2024-05-09T06:51:37.702Z,12.10
2024-05-09T06:53:39.708Z,12.10
2024-05-09T06:55:41.765Z,12.10
2024-05-09T06:57:43.531Z,12.10
2024-05-09T06:59:45.325Z,12.20
2024-05-09T07:01:47.178Z,12.30
2024-05-09T07:03:49.062Z,12.30
2024-05-09T07:05:51.039Z,12.30
2024-05-09T07:07:52.866Z,12.40
2024-05-09T07:09:54.696Z,12.50
2024-05-09T07:11:56.726Z,12.50
2024-05-09T07:13:58.638Z,12.50
2024-05-09T07:16:00.431Z,12.60
2024-05-09T07:18:08.090Z,12.60
2024-05-09T07:20:16.209Z,12.70
2024-05-09T07:22:23.096Z,12.70
2024-05-09T07:24:24.862Z,12.80
2024-05-09T07:26:26.690Z,12.80
2024-05-09T07:28:28.533Z,12.90
2024-05-09T07:30:33.666Z,12.90
2024-05-09T07:32:36.639Z,13.00
2024-05-09T07:34:38.702Z,13.00
2024-05-09T07:36:40.497Z,13.00
2024-05-09T07:38:42.476Z,13.10
2024-05-09T07:40:44.388Z,13.20
2024-05-09T07:42:46.254Z,13.30
2024-05-09T07:44:48.127Z,13.50
2024-05-09T07:47:52.206Z,13.50
2024-05-09T07:50:54.404Z,13.60
2024-05-09T07:53:49.917Z,13.80
2024-05-09T07:55:55.721Z,13.90
2024-05-09T07:57:58.134Z,13.90
2024-05-09T07:59:59.896Z,14.00
2024-05-09T08:02:02.091Z,14.00
2024-05-09T08:04:04.321Z,13.90
2024-05-09T08:06:06.166Z,14.00
2024-05-09T08:08:08.045Z,14.00
2024-05-09T08:10:12.825Z,14.00
2024-05-09T08:12:14.959Z,14.00
2024-05-09T08:14:16.754Z,14.00
2024-05-09T08:16:18.698Z,14.10
2024-05-09T08:18:20.702Z,14.10
2024-05-09T08:20:30.610Z,14.10
2024-05-09T08:22:36.284Z,14.10
2024-05-09T08:24:38.192Z,14.10
2024-05-09T08:26:40.004Z,14.20
2024-05-09T08:28:41.835Z,14.30
2024-05-09T08:30:44.188Z,14.30
2024-05-09T08:32:48.233Z,14.40
2024-05-09T08:34:50.246Z,14.30
2024-05-09T08:36:52.114Z,14.30
2024-05-09T08:38:54.200Z,14.30
2024-05-09T08:40:56.140Z,14.30
2024-05-09T08:42:58.134Z,14.40
2024-05-09T08:44:59.991Z,14.40
2024-05-09T08:47:02.999Z,14.50
2024-05-09T08:49:05.150Z,14.60
2024-05-09T08:51:07.175Z,14.50
2024-05-09T08:53:09.301Z,14.60
2024-05-09T08:55:11.395Z,14.60
2024-05-09T08:57:13.483Z,14.70
2024-05-09T08:59:20.897Z,14.60
2024-05-09T09:01:23.331Z,14.70
2024-05-09T09:03:26.976Z,14.70
2024-05-09T09:05:31.427Z,14.70
2024-05-09T09:07:33.869Z,14.60
2024-05-09T09:09:40.812Z,14.60
2024-05-09T09:11:42.716Z,14.70
2024-05-09T09:13:44.482Z,14.70
2024-05-09T09:15:49.815Z,14.70
2024-05-09T09:17:56.130Z,14.80
2024-05-09T09:19:59.493Z,14.80
2024-05-09T09:22:01.558Z,14.90
2024-05-09T09:24:03.507Z,14.90
2024-05-09T09:26:05.333Z,15.00
2024-05-09T09:28:07.215Z,15.00
2024-05-09T09:30:18.321Z,15.10
2024-05-09T09:32:29.679Z,15.20
2024-05-09T09:34:32.018Z,15.40
2024-05-09T09:36:36.019Z,15.40
2024-05-09T09:38:37.967Z,15.60
2024-05-09T09:40:46.681Z,15.60
2024-05-09T09:42:53.477Z,15.80
2024-05-09T09:45:04.277Z,15.90
2024-05-09T09:47:08.475Z,15.90
2024-05-09T09:49:10.463Z,16.00
2024-05-09T09:51:13.771Z,16.10
2024-05-09T09:53:18.617Z,16.20
2024-05-09T09:55:21.885Z,16.30
2024-05-09T09:57:23.935Z,16.40
2024-05-09T09:59:25.874Z,16.40
2024-05-09T10:01:27.766Z,16.40
2024-05-09T10:03:29.854Z,16.30
2024-05-09T10:05:33.047Z,16.20
2024-05-09T10:07:38.919Z,16.20
2024-05-09T10:09:40.723Z,16.30
2024-05-09T10:11:49.049Z,16.40
2024-05-09T10:13:54.931Z,16.30
2024-05-09T10:15:56.791Z,16.30
2024-05-09T10:18:06.393Z,16.30
2024-05-09T10:20:14.868Z,16.40
2024-05-09T10:22:27.891Z,16.40
2024-05-09T10:24:48.802Z,16.40
2024-05-09T10:26:56.625Z,16.40
2024-05-09T10:28:59.136Z,16.40
2024-05-09T10:31:00.955Z,16.50
2024-05-09T10:33:02.929Z,16.50
2024-05-09T10:35:05.011Z,16.50
2024-05-09T10:37:07.102Z,16.50
2024-05-09T10:39:09.143Z,16.50
2024-05-09T10:41:11.313Z,16.50
2024-05-09T10:43:18.139Z,16.60
2024-05-09T10:45:20.267Z,16.60
2024-05-09T10:47:22.687Z,16.60
2024-05-09T10:49:24.570Z,16.60
2024-05-09T10:51:26.405Z,16.60
2024-05-09T10:53:28.186Z,16.60
2024-05-09T10:55:30.055Z,16.70
2024-05-09T10:57:38.095Z,16.60
2024-05-09T10:59:42.515Z,16.60
2024-05-09T11:01:44.685Z,16.60
2024-05-09T11:03:47.564Z,16.60
2024-05-09T11:05:49.727Z,16.60
2024-05-09T11:07:51.676Z,16.60
2024-05-09T11:09:54.027Z,16.60
2024-05-09T11:11:55.970Z,16.60
2024-05-09T11:13:57.845Z,16.50
2024-05-09T11:16:00.385Z,16.50
2024-05-09T11:18:02.419Z,16.40
2024-05-09T11:20:10.652Z,16.40
2024-05-09T11:22:15.660Z,16.40
2024-05-09T11:24:18.926Z,16.40
2024-05-09T11:26:22.204Z,16.40
2024-05-09T11:28:25.962Z,16.50
2024-05-09T11:30:31.995Z,16.50
2024-05-09T11:32:37.556Z,16.50
2024-05-09T11:34:41.830Z,16.60
2024-05-09T11:36:43.723Z,16.60
2024-05-09T11:38:45.568Z,16.60
2024-05-09T11:40:47.555Z,16.70
2024-05-09T11:42:51.514Z,16.70
2024-05-09T11:44:54.699Z,16.70
2024-05-09T11:46:56.537Z,16.70
2024-05-09T11:48:58.426Z,16.60
2024-05-09T11:51:00.230Z,16.70
2024-05-09T11:53:02.022Z,16.70
2024-05-09T11:55:03.912Z,16.80
2024-05-09T11:57:05.776Z,16.80
2024-05-09T11:59:07.498Z,16.80
2024-05-09T12:01:09.348Z,16.90
2024-05-09T12:03:11.266Z,17.00
2024-05-09T12:05:13.693Z,17.00
2024-05-09T12:07:17.134Z,17.20
2024-05-09T12:09:18.983Z,17.20
2024-05-09T12:11:20.838Z,17.30
2024-05-09T12:13:22.746Z,17.40
2024-05-09T12:15:24.571Z,17.50
2024-05-09T12:17:26.509Z,17.50
2024-05-09T12:19:28.446Z,17.50
2024-05-09T12:21:30.329Z,17.50
2024-05-09T12:23:32.208Z,17.50
2024-05-09T12:25:34.278Z,17.40
2024-05-09T12:27:37.222Z,17.50
2024-05-09T12:29:39.093Z,17.50
2024-05-09T12:31:40.900Z,17.60
2024-05-09T12:33:42.765Z,17.60
2024-05-09T12:35:46.702Z,17.60
2024-05-09T12:37:50.095Z,17.70
2024-05-09T12:39:51.896Z,17.80
2024-05-09T12:41:53.671Z,17.80
2024-05-09T12:43:55.449Z,17.80
2024-05-09T12:45:57.231Z,17.90
2024-05-09T12:47:59.194Z,18.00
2024-05-09T12:50:01.381Z,18.00
2024-05-09T12:52:03.371Z,18.10
2024-05-09T12:54:05.203Z,18.20
2024-05-09T12:58:09.217Z,18.40
2024-05-09T13:00:20.610Z,18.50
2024-05-09T13:02:29.475Z,18.60
2024-05-09T13:04:31.470Z,18.60
2024-05-09T13:06:33.401Z,18.70
2024-05-09T13:08:35.192Z,18.80
2024-05-09T13:10:37.131Z,18.80
2024-05-09T13:12:39.094Z,18.90
2024-05-09T13:14:40.896Z,19.00
2024-05-09T13:16:42.757Z,19.10
2024-05-09T13:18:44.636Z,19.20
2024-05-09T13:20:46.480Z,19.30
2024-05-09T13:22:48.616Z,19.20
2024-05-09T13:24:50.446Z,19.40
2024-05-09T13:26:52.235Z,19.40
2024-05-09T13:28:54.030Z,19.40
2024-05-09T13:30:55.829Z,19.30
2024-05-09T13:32:57.758Z,19.10
2024-05-09T13:34:59.573Z,19.00
2024-05-09T13:37:01.390Z,18.80
2024-05-09T13:39:03.917Z,18.80
2024-05-09T13:41:05.696Z,18.60
2024-05-09T13:43:07.460Z,18.70
2024-05-09T13:45:09.259Z,18.80
2024-05-09T13:47:12.307Z,19.10
2024-05-09T13:49:16.907Z,19.30
2024-05-09T13:51:18.913Z,19.50
2024-05-09T13:53:20.738Z,19.70
2024-05-09T13:55:22.550Z,19.90
2024-05-09T13:57:24.410Z,20.10
2024-05-09T13:59:26.380Z,20.30
2024-05-09T14:01:28.181Z,20.50
2024-05-09T14:03:30.222Z,20.80
2024-05-09T14:05:32.431Z,21.00
2024-05-09T14:07:34.340Z,21.10
2024-05-09T14:09:36.481Z,21.20
2024-05-09T14:11:38.286Z,21.40
2024-05-09T14:13:40.087Z,21.60
2024-05-09T14:15:41.867Z,21.90
2024-05-09T14:17:43.767Z,22.00
2024-05-09T14:19:45.581Z,22.20
2024-05-09T14:21:47.424Z,22.40
2024-05-09T14:23:49.267Z,22.60
2024-05-09T14:25:53.212Z,22.80
2024-05-09T14:27:55.114Z,22.90
2024-05-09T14:29:56.892Z,23.10
2024-05-09T14:31:58.723Z,23.20
2024-05-09T14:34:00.732Z,23.00
2024-05-09T14:36:02.812Z,22.80
2024-05-09T14:38:04.769Z,22.30
2024-05-09T14:40:07.472Z,21.90
2024-05-09T14:42:13.798Z,21.50
2024-05-09T14:44:15.662Z,21.20
2024-05-09T14:46:17.639Z,21.10
2024-05-09T14:48:20.289Z,20.80
2024-05-09T14:50:28.071Z,20.50
2024-05-09T14:52:36.692Z,20.30
2024-05-09T14:54:38.467Z,20.10
2024-05-09T14:56:41.357Z,20.00
2024-05-09T14:58:43.217Z,19.80
2024-05-09T15:00:49.978Z,19.80
2024-05-09T15:02:53.198Z,19.70
2024-05-09T15:04:55.157Z,19.50
2024-05-09T15:06:59.302Z,19.50
2024-05-09T15:09:01.882Z,19.30
2024-05-09T15:11:03.787Z,19.20
2024-05-09T15:13:07.942Z,19.20
2024-05-09T15:15:11.444Z,19.10
2024-05-09T15:17:13.206Z,19.00
2024-05-09T15:19:15.039Z,18.90
2024-05-09T15:21:16.858Z,18.90
2024-05-09T15:23:18.657Z,18.90
2024-05-09T15:25:20.547Z,19.10
2024-05-09T15:27:22.408Z,19.20
2024-05-09T15:29:25.959Z,19.60
2024-05-09T15:31:27.879Z,19.70
2024-05-09T15:33:29.777Z,19.70
2024-05-09T15:35:31.642Z,19.90
2024-05-09T15:37:33.476Z,20.30
2024-05-09T15:39:35.356Z,20.80
2024-05-09T15:41:37.136Z,21.30
2024-05-09T15:43:38.986Z,21.50
2024-05-09T15:45:41.510Z,21.80
2024-05-09T15:47:43.651Z,22.00
2024-05-09T15:49:45.642Z,22.30
2024-05-09T15:51:47.736Z,22.60
2024-05-09T15:53:49.581Z,22.90
2024-05-09T15:55:51.364Z,23.20
2024-05-09T15:57:53.328Z,23.40
2024-05-09T15:59:55.072Z,23.30
2024-05-09T16:01:57.190Z,23.40
2024-05-09T16:03:59.178Z,23.20
2024-05-09T16:06:01.223Z,22.90
2024-05-09T16:08:03.154Z,22.60
2024-05-09T16:10:06.855Z,22.30
2024-05-09T16:12:08.855Z,22.00
2024-05-09T16:14:10.655Z,21.70
2024-05-09T16:16:12.524Z,21.40
2024-05-09T16:18:14.407Z,21.10
2024-05-09T16:20:25.759Z,20.90
2024-05-09T16:22:35.282Z,20.60
2024-05-09T16:24:37.071Z,20.30
2024-05-09T16:26:39.087Z,20.10
2024-05-09T16:28:41.014Z,20.00
2024-05-09T16:30:42.835Z,19.80
2024-05-09T16:32:46.242Z,19.70
2024-05-09T16:34:48.080Z,19.50
2024-05-09T16:36:51.460Z,19.30
2024-05-09T16:38:53.329Z,19.10
2024-05-09T16:40:55.237Z,19.00
2024-05-09T16:42:57.078Z,18.90
2024-05-09T16:44:58.848Z,18.80
2024-05-09T16:47:01.052Z,18.70
2024-05-09T16:49:03.077Z,18.60
2024-05-09T16:51:04.932Z,18.50
2024-05-09T16:53:07.271Z,18.40
2024-05-09T16:55:09.397Z,18.30
2024-05-09T16:57:11.173Z,18.20
2024-05-09T16:59:12.988Z,18.20
2024-05-09T17:01:15.124Z,18.10
2024-05-09T17:03:17.559Z,18.00
2024-05-09T17:05:21.743Z,18.00
2024-05-09T17:07:23.658Z,18.00
2024-05-09T17:09:25.502Z,17.90
2024-05-09T17:11:27.314Z,17.80
2024-05-09T17:13:29.228Z,17.80
2024-05-09T17:15:31.773Z,17.80
2024-05-09T17:17:33.760Z,17.80
2024-05-09T17:19:38.717Z,17.60
2024-05-09T17:21:40.545Z,17.60
2024-05-09T17:23:42.544Z,17.60
2024-05-09T17:25:44.630Z,17.60
2024-05-09T17:27:46.656Z,17.60
2024-05-09T17:29:48.609Z,17.60
2024-05-09T17:31:50.434Z,17.50
2024-05-09T17:33:52.665Z,17.50
2024-05-09T17:35:54.887Z,17.50
2024-05-09T17:37:59.720Z,17.40
2024-05-09T17:40:01.934Z,17.40
2024-05-09T17:42:04.090Z,17.20
2024-05-09T17:44:06.549Z,17.20
2024-05-09T17:46:08.470Z,17.20
2024-05-09T17:48:11.408Z,17.20
2024-05-09T17:50:20.966Z,17.00
2024-05-09T17:52:28.784Z,17.00
2024-05-09T17:54:30.690Z,16.90
2024-05-09T17:56:32.663Z,16.80
2024-05-09T17:58:34.605Z,16.70
2024-05-09T18:00:40.094Z,16.60
2024-05-09T18:02:44.027Z,16.50
2024-05-09T18:04:46.013Z,16.40
2024-05-09T18:06:47.989Z,16.40
2024-05-09T18:08:49.807Z,16.20
2024-05-09T18:10:53.377Z,16.10
2024-05-09T18:12:56.668Z,16.00
2024-05-09T18:14:58.862Z,16.00
2024-05-09T18:17:00.788Z,15.80
2024-05-09T18:19:02.892Z,15.80
2024-05-09T18:21:04.822Z,15.70
2024-05-09T18:23:06.639Z,15.60
2024-05-09T18:25:08.480Z,15.50
2024-05-09T18:27:10.530Z,15.40
2024-05-09T18:29:12.357Z,15.30
2024-05-09T18:31:15.037Z,15.20
2024-05-09T18:33:17.054Z,15.00
2024-05-09T18:35:19.047Z,15.00
2024-05-09T18:37:20.854Z,14.80
2024-05-09T18:39:22.677Z,14.70
2024-05-09T18:41:24.450Z,14.60
2024-05-09T18:43:31.410Z,14.50
2024-05-09T18:45:40.495Z,14.40
2024-05-09T18:47:42.566Z,14.30
2024-05-09T18:49:44.520Z,14.10
2024-05-09T18:51:46.477Z,14.10
2024-05-09T18:53:48.692Z,14.00
2024-05-09T18:55:50.490Z,13.90
2024-05-09T18:57:52.334Z,13.80
2024-05-09T18:59:54.246Z,13.70
2024-05-09T19:01:56.121Z,13.60
2024-05-09T19:03:58.157Z,13.50
2024-05-09T19:06:00.130Z,13.50
2024-05-09T19:08:02.060Z,13.30
2024-05-09T19:10:05.536Z,13.30
2024-05-09T19:12:07.556Z,13.10
2024-05-09T19:14:09.328Z,13.10
2024-05-09T19:16:11.152Z,13.00
2024-05-09T19:18:13.969Z,13.00
2024-05-09T19:20:24.967Z,12.90
2024-05-09T19:22:30.754Z,12.80
2024-05-09T19:24:32.594Z,12.70
2024-05-09T19:26:34.440Z,12.70
2024-05-09T19:28:36.252Z,12.60
2024-05-09T19:30:41.378Z,12.50
2024-05-09T19:32:44.687Z,12.50
2024-05-09T19:34:46.607Z,12.40
2024-05-09T19:36:48.570Z,12.30
2024-05-09T19:38:51.593Z,12.30
2024-05-09T19:40:53.583Z,12.20
2024-05-09T19:42:55.595Z,12.10
2024-05-09T19:44:57.686Z,12.10
2024-05-09T19:46:59.461Z,12.00
2024-05-09T19:49:02.608Z,11.90
2024-05-09T19:51:04.594Z,11.90
2024-05-09T19:53:06.419Z,11.90
2024-05-09T19:55:08.262Z,11.80
2024-05-09T19:57:10.122Z,11.70
2024-05-09T19:59:12.352Z,11.70
2024-05-09T20:01:14.219Z,11.60
2024-05-09T20:03:16.448Z,11.50
2024-05-09T20:05:18.360Z,11.50
2024-05-09T20:07:20.212Z,11.50
2024-05-09T20:09:22.076Z,11.40
2024-05-09T20:11:24.591Z,11.40
2024-05-09T20:13:26.513Z,11.40
2024-05-09T20:15:28.373Z,11.30
2024-05-09T20:17:30.237Z,11.20
2024-05-09T20:19:32.190Z,11.20
2024-05-09T20:21:34.146Z,11.10
2024-05-09T20:23:36.292Z,11.10
2024-05-09T20:25:38.097Z,11.10
2024-05-09T20:27:39.875Z,11.00
2024-05-09T20:29:41.664Z,11.00
2024-05-09T20:31:43.398Z,10.90
2024-05-09T20:33:45.225Z,10.90
2024-05-09T20:35:47.055Z,10.90
2024-05-09T20:37:48.816Z,10.80
2024-05-09T20:39:51.234Z,10.80
2024-05-09T20:41:53.904Z,10.70
2024-05-09T20:43:58.118Z,10.70
2024-05-09T20:45:59.991Z,10.70
2024-05-09T20:48:02.217Z,10.70
2024-05-09T20:50:11.363Z,10.70
2024-05-09T20:52:18.146Z,10.60
2024-05-09T20:54:20.080Z,10.60
2024-05-09T20:56:22.544Z,10.50
2024-05-09T20:58:24.509Z,10.50
2024-05-09T21:00:35.363Z,10.50
2024-05-09T21:02:43.796Z,10.40
2024-05-09T21:04:46.024Z,10.40
2024-05-09T21:06:47.947Z,10.30
2024-05-09T21:08:49.843Z,10.30
2024-05-09T21:10:51.656Z,10.30
2024-05-09T21:12:53.715Z,10.20
2024-05-09T21:14:55.530Z,10.20
2024-05-09T21:16:57.451Z,10.10
2024-05-09T21:18:59.775Z,10.10
2024-05-09T21:21:01.594Z,10.10
2024-05-09T21:23:03.910Z,10.00
2024-05-09T21:25:06.003Z,10.00
2024-05-09T21:27:07.831Z,10.00
2024-05-09T21:29:09.624Z,10.00
2024-05-09T21:31:11.474Z,9.90
2024-05-09T21:33:14.755Z,9.90
2024-05-09T21:35:17.530Z,9.80
2024-05-09T21:37:19.330Z,9.80
2024-05-09T21:39:21.151Z,9.80
2024-05-09T21:41:23.054Z,9.70
2024-05-09T21:43:26.845Z,9.70
2024-05-09T21:45:28.683Z,9.70
2024-05-09T21:47:30.569Z,9.70
2024-05-09T21:49:32.405Z,9.70
2024-05-09T21:51:34.259Z,9.60
2024-05-09T21:53:37.787Z,9.60
2024-05-09T21:55:39.700Z,9.50
2024-05-09T21:57:41.476Z,9.50
2024-05-09T21:59:43.323Z,9.50
2024-05-09T22:01:45.162Z,9.40
2024-05-09T22:03:47.221Z,9.40
2024-05-09T22:05:49.068Z,9.40
2024-05-09T22:07:51.527Z,9.40
2024-05-09T22:09:53.327Z,9.40
2024-05-09T22:11:56.565Z,9.40
2024-05-09T22:13:59.478Z,9.40
2024-05-09T22:16:02.334Z,9.30
2024-05-09T22:18:04.474Z,9.20
2024-05-09T22:20:11.980Z,9.20
2024-05-09T22:22:20.466Z,9.20
2024-05-09T22:24:22.228Z,9.20
2024-05-09T22:26:23.979Z,9.20
2024-05-09T22:28:25.854Z,9.20
2024-05-09T22:30:34.997Z,9.10
2024-05-09T22:32:40.343Z,9.10
2024-05-09T22:34:42.229Z,9.00
2024-05-09T22:36:44.000Z,9.00
2024-05-09T22:38:45.890Z,9.00
2024-05-09T22:40:49.753Z,9.00
2024-05-09T22:42:51.983Z,8.90
2024-05-09T22:44:53.761Z,8.90
2024-05-09T22:46:55.558Z,8.90
2024-05-09T22:48:57.482Z,8.80
2024-05-09T22:50:59.358Z,8.80
2024-05-09T22:53:01.374Z,8.80
2024-05-09T22:55:03.732Z,8.80
2024-05-09T22:57:05.557Z,8.70
2024-05-09T22:59:07.998Z,8.60
2024-05-09T23:01:14.365Z,8.60
2024-05-09T23:03:16.758Z,8.60
2024-05-09T23:05:18.715Z,8.60
2024-05-09T23:07:20.635Z,8.60
2024-05-09T23:09:22.463Z,8.60
2024-05-09T23:11:24.384Z,8.60
2024-05-09T23:13:26.289Z,8.50
2024-05-09T23:15:28.052Z,8.50
2024-05-09T23:17:30.245Z,8.50
2024-05-09T23:19:32.315Z,8.50
2024-05-09T23:21:37.844Z,8.40
2024-05-09T23:23:40.117Z,8.40
2024-05-09T23:25:42.208Z,8.40
2024-05-09T23:27:44.226Z,8.30
2024-05-09T23:29:46.938Z,8.30
2024-05-09T23:31:48.667Z,8.30
2024-05-09T23:33:50.571Z,8.30
2024-05-09T23:35:52.497Z,8.30
2024-05-09T23:37:54.241Z,8.20
2024-05-09T23:39:56.335Z,8.20
2024-05-09T23:41:58.166Z,8.20
2024-05-09T23:43:59.965Z,8.20
2024-05-09T23:46:01.943Z,8.20
2024-05-09T23:48:04.199Z,8.10
2024-05-09T23:50:11.076Z,8.10
2024-05-09T23:52:17.990Z,8.10
2024-05-09T23:54:19.792Z,8.10
2024-05-09T23:56:21.613Z,8.00
2024-05-09T23:58:23.596Z,8.00
